Dease Lake, Canada
Current Conditions -  °F | °C
As of 6:00 PM on Thursday 18 Dec 2014 (Local Time) from CYDL Reporting Station
Overcast Overcast  
Wind Chill: -5°   Ceiling: 12000
Heat Index:   Visibility: 9mi
Dew Point:   Wind: 9mph
Humidity: 100%   Direction: 60°ENE
Pressure: 29.54"   Gusts: NA
Location:  58.44°N, 129.99°W
Report Text: CYDL 190200Z AUTO 06008KT 9SM OVC120 M13/M13 A2954 RMK SLP056
Loading
Personal Weather Stations






























Interactive Weather Map New forecast layout! Learn more

10-Day Weather Forecast

Advertisements
Track Severe Weather on mobile